首页
METAR-TAF:

METAR-TAF

机场 :

萨尔瓦多奥斯卡·阿努尔福·罗梅罗-伊-加尔达梅斯主教国际机场

萨尔瓦多, 萨尔瓦多

纬度: 13-26N, 经度: 089-03W, 海拔: 25米

当前天气观测

该预报发布于20分钟前的16:50 UTC
风速3节,风向东转东南,在东北之间变化
温度 33°C
湿度 56%
气压 1013 hPa
能见度10公里或以上
少量云层高于2300英尺

METAR: MSLP 081650Z 11003KT 050V170 9999 FEW023 33/23 Q1012 A2991 NOSIG

时间: 11:10 (17:10 UTC)

预报

该预报发布于7小时和45分钟前的09:25 UTC
预报有效从08日的 12点(UTC)到 09日的 12点(UTC)
风速6节,风向东转东北
能见度10公里或以上
散云层高于2300英尺
从 08日的 1800点(UTC)
风速12节,风向南转西南
能见度10公里或以上
散云层高于2300英尺
散云层高于3300英尺, 积雨云.
短暂存在
从 08日的 19点(UTC)到 08日的 21点(UTC)
能見度: 8000
雷暴, 雨
从 09日的 0000点(UTC)
风速3节,风向多变
能见度10公里或以上
散云层高于2300英尺
散云层高于3300英尺, 积雨云.
短暂存在
从 09日的 02点(UTC)到 09日的 05点(UTC)
风速10节,风向东转东北
能見度: 5000
多云层高于2000英尺
多云层高于3300英尺, 积雨云.
雷暴, 雨

TAF: MSLP 080925Z 0812/0912 06006KT 9999 SCT023 TX33/0818Z TN25/0911Z FM081800 21012KT 9999 SCT023 SCT033CB TEMPO 0819/0821 8000 TSRA FM090000 VRB03KT 9999 SCT023 SCT033CB TEMPO 0902/0905 06010KT 5000 TSRA BKN020 BKN033CB

超过4000个机场的气象观测和天气预报(METAR&TAF报告)。

可查询的气象台以黄色和红色小点在地图上表示。

将鼠标移到小点上方,可查看气象台名称。

然后点击查看天气观测和预报。

如需切换地图:点击带黑十字的绿色按钮放大地图;点击带横线的绿色按钮缩小地图;或者点击绿色箭头查看邻近地区的地图。


METAR-TAF: